Time;durP1;ratioP1;P1;durP2;ratioP2;P2;SDS_P1;SDS_P2;PMS_P1;PMS_P2;Temp;Humidity;BMP_temperature;BMP_pressure;BME280_temperature;BME280_humidity;BME280_pressure;Samples;Min_cycle;Max_cycle;Signal;HPM_P1;HPM_P2
2022/05/22 00:00:17;;;;;;;;;;;;;;;19.43;55.13;99215.25;5027997;28;19984;-82
2022/05/22 00:02:43;;;;;;;;;;;;;;;19.36;56.21;99221.06;5026722;28;20434;-82
2022/05/22 00:05:09;;;;;;;;;;;;;;;19.41;56.13;99219.81;5028188;28;20390;-82
2022/05/22 00:07:35;;;;;;;;;;;;;;;19.37;56.88;99218.31;5027247;28;19928;-82
2022/05/22 00:10:01;;;;;;;;;;;;;;;19.40;56.59;99217.22;5027541;28;19921;-81
2022/05/22 00:12:27;;;;;;;;;;;;;;;19.41;56.16;99211.78;5027738;28;20012;-82
2022/05/22 00:14:52;;;;;;;;;;;;;;;19.36;55.06;99211.22;5027746;28;19921;-81
2022/05/22 00:17:17;;;;;;;;;;;;;;;19.40;53.00;99207.41;5027735;28;19928;-81
2022/05/22 00:19:42;;;;;;;;;;;;;;;19.54;54.32;99205.72;5028166;28;19923;-82
2022/05/22 00:22:08;;;;;;;;;;;;;;;19.58;55.37;99199.25;5027905;28;19917;-81
2022/05/22 00:24:34;;;;;;;;;;;;;;;19.56;55.36;99201.16;5028118;28;19920;-81
2022/05/22 00:27:02;;;;;;;;;;;;;;;19.49;56.14;99200.63;5028252;28;19928;-80
2022/05/22 00:29:28;;;;;;;;;;;;;;;19.49;56.06;99198.84;5028236;28;19936;-81
2022/05/22 00:31:53;;;;;;;;;;;;;;;19.53;55.58;99204.00;5027807;28;19917;-81
2022/05/22 00:34:19;;;;;;;;;;;;;;;19.48;54.79;99202.47;5027707;28;19925;-82
2022/05/22 00:36:44;;;;;;;;;;;;;;;19.50;54.62;99203.22;5027881;28;19917;-82
2022/05/22 00:39:09;;;;;;;;;;;;;;;19.61;54.85;99191.88;5028074;28;19921;-82
2022/05/22 00:41:35;;;;;;;;;;;;;;;19.63;55.54;99195.34;5028410;28;19920;-81
2022/05/22 00:44:01;;;;;;;;;;;;;;;19.60;55.59;99190.19;5028462;28;19924;-81
2022/05/22 00:46:27;;;;;;;;;;;;;;;19.63;54.77;99191.78;5027003;28;19998;-82
2022/05/22 00:48:55;;;;;;;;;;;;;;;19.65;54.33;99193.44;5025975;28;20744;-81
2022/05/22 00:51:25;;;;;;;;;;;;;;;19.46;58.51;99187.44;5026427;28;19917;-82
2022/05/22 00:53:53;;;;;;;;;;;;;;;19.34;59.18;99191.75;5026928;28;20012;-81
2022/05/22 00:56:21;;;;;;;;;;;;;;;19.22;61.06;99184.44;5026041;28;20450;-80
2022/05/22 00:58:47;;;;;;;;;;;;;;;19.25;61.14;99177.09;5027145;28;20752;-81
2022/05/22 01:01:12;;;;;;;;;;;;;;;19.27;60.51;99183.19;5027123;28;19913;-81
2022/05/22 01:03:38;;;;;;;;;;;;;;;19.17;60.96;99181.16;5026283;28;19921;-81
2022/05/22 01:06:10;;;;;;;;;;;;;;;19.18;60.38;99172.19;5026201;28;20288;-81
2022/05/22 01:08:39;;;;;;;;;;;;;;;19.13;60.68;99173.31;5026520;28;19936;-82
2022/05/22 01:11:08;;;;;;;;;;;;;;;19.17;60.57;99170.47;5013132;28;19921;-81
2022/05/22 01:13:56;;;;;;;;;;;;;;;19.21;59.17;99177.34;5029970;28;20440;-81
2022/05/22 01:16:21;;;;;;;;;;;;;;;19.27;58.39;99169.81;5019540;28;19913;-81
2022/05/22 01:18:56;;;;;;;;;;;;;;;19.27;57.79;99168.97;5030063;28;19917;-81
2022/05/22 01:21:27;;;;;;;;;;;;;;;19.33;57.40;99174.81;5030302;28;20012;-81
2022/05/22 01:23:53;;;;;;;;;;;;;;;19.40;57.14;99161.97;5030844;28;19921;-82
2022/05/22 01:26:19;;;;;;;;;;;;;;;19.37;57.94;99163.94;5029406;28;19913;-82
2022/05/22 01:28:44;;;;;;;;;;;;;;;19.40;58.24;99166.44;5030889;28;20287;-81
2022/05/22 01:31:10;;;;;;;;;;;;;;;19.43;56.77;99172.47;5013433;28;19913;-82
2022/05/22 01:33:36;;;;;;;;;;;;;;;19.46;56.66;99163.38;5029884;28;20363;-81
2022/05/22 01:36:02;;;;;;;;;;;;;;;19.34;58.70;99165.00;5030247;28;19921;-81
2022/05/22 01:38:28;;;;;;;;;;;;;;;19.38;58.88;99165.66;5029864;28;19920;-81
2022/05/22 01:40:53;;;;;;;;;;;;;;;19.17;60.71;99155.31;5030687;28;19986;-81
2022/05/22 01:43:18;;;;;;;;;;;;;;;18.79;60.86;99167.22;5030017;28;20000;-81
2022/05/22 01:45:45;;;;;;;;;;;;;;;18.86;60.79;99158.88;5030406;28;20725;-80
2022/05/22 01:48:11;;;;;;;;;;;;;;;18.92;61.16;99161.19;5029108;28;19920;-82
2022/05/22 01:50:38;;;;;;;;;;;;;;;18.93;60.95;99168.28;5012925;28;20397;-82
2022/05/22 01:53:04;;;;;;;;;;;;;;;18.95;61.21;99171.72;5030012;28;19928;-82
2022/05/22 01:55:29;;;;;;;;;;;;;;;19.01;60.59;99166.00;5029962;28;19921;-82
2022/05/22 01:57:54;;;;;;;;;;;;;;;19.06;60.34;99157.72;5030501;28;19956;-82
2022/05/22 02:00:20;;;;;;;;;;;;;;;18.98;60.47;99165.34;5013281;28;19917;-82
2022/05/22 02:02:46;;;;;;;;;;;;;;;19.08;59.87;99163.88;5011896;28;20319;-81
2022/05/22 02:05:11;;;;;;;;;;;;;;;19.12;58.78;99162.72;5012053;28;20303;-81
2022/05/22 02:08:22;;;;;;;;;;;;;;;19.17;58.36;99157.09;5029903;28;19978;-80
2022/05/22 02:10:24;;;;;;;;;;;;;;;18.99;58.14;99165.25;5016179;28;19913;-81
2022/05/22 02:12:51;;;;;;;;;;;;;;;18.99;58.11;99162.56;5029644;28;19920;-81
2022/05/22 02:15:17;;;;;;;;;;;;;;;19.06;57.47;99161.28;5030222;28;19921;-81
2022/05/22 02:17:42;;;;;;;;;;;;;;;19.22;56.50;99163.91;5031867;28;20302;-81
2022/05/22 02:20:08;;;;;;;;;;;;;;;19.27;55.80;99155.59;5033745;28;19913;-80
2022/05/22 02:22:38;;;;;;;;;;;;;;;19.19;56.08;99157.88;5032603;28;19917;-80
2022/05/22 02:25:04;;;;;;;;;;;;;;;19.19;56.16;99153.38;5033919;28;20008;-81
2022/05/22 02:27:29;;;;;;;;;;;;;;;19.25;55.98;99152.19;5015333;28;19913;-80
2022/05/22 02:29:54;;;;;;;;;;;;;;;19.30;55.88;99156.28;5033887;28;19913;-81
2022/05/22 02:32:20;;;;;;;;;;;;;;;19.38;56.68;99158.50;5033655;28;20434;-81
2022/05/22 02:34:45;;;;;;;;;;;;;;;19.35;57.49;99158.69;5033608;28;19909;-81
2022/05/22 02:37:10;;;;;;;;;;;;;;;19.41;58.15;99162.81;5033157;28;20279;-81
2022/05/22 02:39:35;;;;;;;;;;;;;;;19.39;58.29;99165.56;5033663;28;19917;-81
2022/05/22 02:42:02;;;;;;;;;;;;;;;19.41;58.69;99157.47;5033325;28;19917;-81
2022/05/22 02:44:28;;;;;;;;;;;;;;;19.40;59.39;99153.06;5032100;28;19948;-81
2022/05/22 02:46:53;;;;;;;;;;;;;;;19.38;58.90;99153.16;5034003;28;19917;-81
2022/05/22 02:49:18;;;;;;;;;;;;;;;19.22;60.45;99155.03;5032828;28;20000;-81
2022/05/22 02:51:44;;;;;;;;;;;;;;;19.13;60.95;99154.59;5032698;28;19959;-81
2022/05/22 02:54:10;;;;;;;;;;;;;;;19.25;61.37;99150.34;5032945;28;20011;-82
2022/05/22 02:56:35;;;;;;;;;;;;;;;19.11;62.39;99155.66;5032457;28;19912;-82
2022/05/22 02:59:01;;;;;;;;;;;;;;;19.11;62.42;99156.50;5033430;28;19943;-81
2022/05/22 03:01:26;;;;;;;;;;;;;;;18.99;62.09;99138.53;5032487;28;19920;-82
2022/05/22 03:03:51;;;;;;;;;;;;;;;19.21;61.65;99159.50;5032864;28;19921;-81
2022/05/22 03:09:00;;;;;;;;;;;;;;;19.02;62.83;99166.91;5033109;28;19955;-82
2022/05/22 03:11:26;;;;;;;;;;;;;;;19.09;62.87;99163.78;5032207;28;20375;-82
2022/05/22 03:13:51;;;;;;;;;;;;;;;19.06;61.94;99165.75;5032863;28;19996;-82
2022/05/22 03:16:17;;;;;;;;;;;;;;;19.17;61.67;99166.00;5014098;28;19913;-82
2022/05/22 03:18:42;;;;;;;;;;;;;;;19.21;61.20;99174.69;5013885;28;19967;-81
2022/05/22 03:21:08;;;;;;;;;;;;;;;19.24;62.11;99169.16;5032636;28;19942;-82
2022/05/22 03:23:33;;;;;;;;;;;;;;;19.24;62.89;99171.84;5031878;28;20415;-82
2022/05/22 03:25:58;;;;;;;;;;;;;;;19.01;62.13;99171.34;5032388;28;19913;-81
2022/05/22 03:28:24;;;;;;;;;;;;;;;19.14;61.01;99174.19;5032607;28;19920;-82
2022/05/22 03:30:50;;;;;;;;;;;;;;;19.42;59.62;99176.09;5032547;28;19917;-82
2022/05/22 03:33:16;;;;;;;;;;;;;;;19.65;58.89;99169.34;5031360;28;20058;-82
2022/05/22 03:35:41;;;;;;;;;;;;;;;19.96;58.09;99164.81;5032471;28;19913;-83
2022/05/22 03:38:07;;;;;;;;;;;;;;;20.18;57.05;99167.00;5031198;28;19924;-83
2022/05/22 03:40:32;;;;;;;;;;;;;;;20.40;56.29;99176.34;5032699;28;19909;-83
2022/05/22 03:42:59;;;;;;;;;;;;;;;20.50;56.38;99169.47;5031287;28;19917;-83
2022/05/22 03:45:25;;;;;;;;;;;;;;;20.83;54.83;99172.75;5032554;28;19920;-83
2022/05/22 03:47:50;;;;;;;;;;;;;;;21.05;54.61;99169.50;5032116;28;19913;-83
2022/05/22 03:50:15;;;;;;;;;;;;;;;21.19;54.23;99173.94;5032210;28;19920;-83
2022/05/22 03:52:42;;;;;;;;;;;;;;;21.37;53.44;99172.69;5012853;28;19947;-83
2022/05/22 03:55:10;;;;;;;;;;;;;;;21.47;53.54;99167.56;5031833;28;19917;-83
2022/05/22 03:57:35;;;;;;;;;;;;;;;21.55;52.55;99170.63;5030795;28;20012;-83
2022/05/22 04:00:02;;;;;;;;;;;;;;;21.74;52.20;99162.16;5032566;28;19995;-84
2022/05/22 04:02:27;;;;;;;;;;;;;;;21.88;51.79;99160.31;5030587;28;19947;-84
2022/05/22 04:04:53;;;;;;;;;;;;;;;22.02;51.94;99162.03;5030976;28;19917;-84
2022/05/22 04:07:18;;;;;;;;;;;;;;;22.16;50.96;99165.44;5031734;28;19975;-84
2022/05/22 04:09:43;;;;;;;;;;;;;;;22.22;50.69;99174.91;5030922;28;19917;-83
2022/05/22 04:12:10;;;;;;;;;;;;;;;22.41;49.66;99173.59;5031701;28;19917;-82
2022/05/22 04:14:35;;;;;;;;;;;;;;;22.44;49.47;99171.53;5031324;28;19964;-82
2022/05/22 04:17:00;;;;;;;;;;;;;;;22.54;48.37;99177.13;5031876;28;20413;-81
2022/05/22 04:19:26;;;;;;;;;;;;;;;22.65;49.47;99179.88;5030465;28;19924;-82
2022/05/22 04:21:51;;;;;;;;;;;;;;;22.66;48.64;99170.84;5013213;28;20395;-82
2022/05/22 04:27:05;;;;;;;;;;;;;;;22.82;48.44;99193.94;5014347;28;19927;-83
2022/05/22 04:29:31;;;;;;;;;;;;;;;22.74;48.07;99181.03;5031632;28;19913;-83
2022/05/22 04:31:56;;;;;;;;;;;;;;;22.83;47.55;99184.88;5031501;28;20306;-82
2022/05/22 04:34:22;;;;;;;;;;;;;;;22.83;47.52;99191.13;5030286;28;19924;-81
2022/05/22 04:36:47;;;;;;;;;;;;;;;22.96;47.29;99183.00;5030937;28;19931;-82
2022/05/22 04:39:12;;;;;;;;;;;;;;;22.91;47.46;99187.88;5030339;28;19920;-81
2022/05/22 04:41:37;;;;;;;;;;;;;;;23.00;46.54;99186.31;5030567;28;19917;-81
2022/05/22 04:44:03;;;;;;;;;;;;;;;22.93;45.53;99193.13;5030764;28;19964;-81
2022/05/22 04:46:28;;;;;;;;;;;;;;;23.04;45.13;99193.19;5030606;28;20023;-81
2022/05/22 04:48:54;;;;;;;;;;;;;;;23.01;44.87;99188.03;5031324;28;19919;-81
2022/05/22 04:51:19;;;;;;;;;;;;;;;23.09;44.34;99187.47;5030728;28;19913;-80
2022/05/22 04:53:44;;;;;;;;;;;;;;;23.17;43.86;99196.72;5029486;28;20378;-81
2022/05/22 04:56:10;;;;;;;;;;;;;;;23.25;43.07;99198.81;5030892;28;19917;-81
2022/05/22 04:58:35;;;;;;;;;;;;;;;23.31;43.08;99198.34;5031135;28;19913;-82
2022/05/22 05:01:04;;;;;;;;;;;;;;;23.30;43.68;99201.16;5030930;28;19952;-81
2022/05/22 05:03:29;;;;;;;;;;;;;;;23.37;44.28;99197.88;5030013;28;19917;-81
2022/05/22 05:05:56;;;;;;;;;;;;;;;23.50;42.73;99194.25;5030381;28;19921;-81
2022/05/22 05:08:21;;;;;;;;;;;;;;;23.56;42.95;99202.72;5029947;28;20130;-81
2022/05/22 05:10:46;;;;;;;;;;;;;;;23.69;42.88;99205.31;5031429;28;20349;-81
2022/05/22 05:13:12;;;;;;;;;;;;;;;23.83;42.51;99201.53;5031201;28;19917;-81
2022/05/22 05:15:37;;;;;;;;;;;;;;;23.87;41.60;99200.38;5030506;28;19921;-80
2022/05/22 05:18:03;;;;;;;;;;;;;;;24.13;42.41;99194.78;5030102;28;19978;-81
2022/05/22 05:20:29;;;;;;;;;;;;;;;24.29;42.38;99192.56;5031162;28;19912;-81
2022/05/22 05:22:54;;;;;;;;;;;;;;;24.14;41.67;99193.78;5030244;28;19960;-81
2022/05/22 05:25:20;;;;;;;;;;;;;;;24.15;41.76;99200.03;5031328;28;20276;-80
2022/05/22 05:27:45;;;;;;;;;;;;;;;24.12;41.74;99198.44;5030707;28;20468;-81
2022/05/22 05:30:11;;;;;;;;;;;;;;;24.08;41.46;99200.53;5030060;28;19924;-82
2022/05/22 05:32:36;;;;;;;;;;;;;;;24.13;40.78;99206.41;5028437;28;19927;-85
2022/05/22 05:35:04;;;;;;;;;;;;;;;24.28;40.49;99201.63;5012229;28;20373;-84
2022/05/22 05:37:30;;;;;;;;;;;;;;;24.46;40.47;99203.81;5031082;28;20349;-85
2022/05/22 05:39:55;;;;;;;;;;;;;;;24.54;40.50;99198.66;5030980;28;19913;-83
2022/05/22 05:42:21;;;;;;;;;;;;;;;24.62;39.82;99203.47;5010987;28;19917;-85
2022/05/22 05:44:47;;;;;;;;;;;;;;;24.57;38.92;99203.84;5030163;28;19931;-85
2022/05/22 05:47:13;;;;;;;;;;;;;;;24.66;39.25;99199.56;5028804;28;20003;-83
2022/05/22 05:49:38;;;;;;;;;;;;;;;24.62;38.94;99193.56;5030413;28;19959;-88
2022/05/22 05:52:04;;;;;;;;;;;;;;;24.47;38.99;99192.06;5031262;28;19913;-82
2022/05/22 05:54:30;;;;;;;;;;;;;;;24.36;39.49;99195.63;5029964;28;20043;-83
2022/05/22 05:56:55;;;;;;;;;;;;;;;24.25;39.80;99195.63;5020269;28;19922;-83
2022/05/22 05:59:20;;;;;;;;;;;;;;;24.16;39.73;99201.75;5015113;28;20008;-81
2022/05/22 06:01:46;;;;;;;;;;;;;;;24.22;42.51;99190.47;4999051;28;19988;-83
2022/05/22 06:04:11;;;;;;;;;;;;;;;24.88;41.01;99189.69;5025612;28;19990;-81
2022/05/22 06:06:36;;;;;;;;;;;;;;;25.52;39.15;99186.19;5032660;28;19967;-82
2022/05/22 06:09:02;;;;;;;;;;;;;;;25.82;38.85;99190.75;5034025;28;19944;-82
2022/05/22 06:11:27;;;;;;;;;;;;;;;26.21;36.97;99180.22;5033515;28;19921;-82
2022/05/22 06:13:52;;;;;;;;;;;;;;;26.43;35.91;99178.28;5015812;28;20448;-83
2022/05/22 06:16:18;;;;;;;;;;;;;;;26.58;35.45;99181.47;5032944;28;20032;-83
2022/05/22 06:18:43;;;;;;;;;;;;;;;26.62;33.57;99191.03;5033039;28;19909;-82
2022/05/22 06:21:13;;;;;;;;;;;;;;;26.85;32.85;99185.38;5033912;28;19924;-82
2022/05/22 06:23:39;;;;;;;;;;;;;;;26.74;32.63;99187.25;5033184;28;19936;-80
2022/05/22 06:26:07;;;;;;;;;;;;;;;26.92;32.37;99184.69;5033603;28;20330;-82
2022/05/22 06:28:33;;;;;;;;;;;;;;;26.93;32.17;99181.00;5032273;28;19967;-82
2022/05/22 06:30:58;;;;;;;;;;;;;;;26.89;31.65;99184.97;5032615;28;19920;-81
2022/05/22 06:33:23;;;;;;;;;;;;;;;27.27;32.17;99188.72;5032991;28;19916;-82
2022/05/22 06:35:49;;;;;;;;;;;;;;;27.40;31.72;99184.91;5032031;28;19924;-82
2022/05/22 06:41:07;;;;;;;;;;;;;;;27.39;31.70;99196.72;5032483;28;20010;-83
2022/05/22 06:43:32;;;;;;;;;;;;;;;27.68;30.75;99194.84;5030273;28;19952;-82
2022/05/22 06:45:58;;;;;;;;;;;;;;;27.83;31.41;99194.41;5033234;28;20409;-81
2022/05/22 06:48:23;;;;;;;;;;;;;;;28.31;29.15;99185.28;5032199;28;20302;-81
2022/05/22 06:50:49;;;;;;;;;;;;;;;28.30;28.65;99174.59;5032739;28;19913;-82
2022/05/22 06:53:15;;;;;;;;;;;;;;;28.13;27.97;99189.78;5014891;28;20003;-81
2022/05/22 06:55:40;;;;;;;;;;;;;;;28.07;28.25;99187.66;5032725;28;20353;-81
2022/05/22 06:58:06;;;;;;;;;;;;;;;27.80;28.10;99184.69;5032662;28;20341;-81
2022/05/22 07:00:31;;;;;;;;;;;;;;;27.71;30.12;99184.72;5031992;28;19920;-82
2022/05/22 07:02:57;;;;;;;;;;;;;;;27.27;29.46;99191.44;5032279;28;19923;-80
2022/05/22 07:05:22;;;;;;;;;;;;;;;26.98;28.82;99189.53;5032284;28;19948;-82
2022/05/22 07:07:48;;;;;;;;;;;;;;;26.63;30.37;99188.19;5032631;28;19956;-78
2022/05/22 07:10:14;;;;;;;;;;;;;;;26.78;30.39;99180.53;5032173;28;19924;-79
2022/05/22 07:12:39;;;;;;;;;;;;;;;27.08;30.32;99191.41;5032726;28;19921;-80
2022/05/22 07:15:05;;;;;;;;;;;;;;;26.91;30.77;99187.53;5031666;28;19917;-81
2022/05/22 07:17:31;;;;;;;;;;;;;;;26.59;29.70;99196.72;5013973;28;20375;-81
2022/05/22 07:19:56;;;;;;;;;;;;;;;26.32;31.44;99194.59;5032477;28;19917;-80
2022/05/22 07:22:22;;;;;;;;;;;;;;;26.27;31.49;99198.59;5031739;28;19986;-82
2022/05/22 07:24:48;;;;;;;;;;;;;;;26.00;31.76;99199.16;5031322;28;19921;-81
2022/05/22 07:27:14;;;;;;;;;;;;;;;25.78;31.57;99192.03;5032915;28;20393;-81
2022/05/22 07:29:39;;;;;;;;;;;;;;;25.49;32.50;99192.69;5031048;28;19936;-84
2022/05/22 07:32:05;;;;;;;;;;;;;;;25.52;32.76;99200.53;5023339;28;20032;-82
2022/05/22 07:34:31;;;;;;;;;;;;;;;25.55;32.62;99192.16;5026847;28;20387;-81
2022/05/22 07:36:57;;;;;;;;;;;;;;;25.63;32.84;99182.56;5032006;28;19917;-82
2022/05/22 07:39:23;;;;;;;;;;;;;;;25.62;34.19;99183.53;5031910;28;19942;-83
2022/05/22 07:41:48;;;;;;;;;;;;;;;25.61;34.64;99196.19;5032070;28;20341;-83
2022/05/22 07:44:14;;;;;;;;;;;;;;;25.47;33.16;99186.56;5032266;28;19913;-84
2022/05/22 07:46:39;;;;;;;;;;;;;;;25.58;32.98;99187.47;5032640;28;19959;-83
2022/05/22 07:49:04;;;;;;;;;;;;;;;25.63;34.13;99185.25;5030569;28;20357;-83
2022/05/22 07:51:29;;;;;;;;;;;;;;;25.82;33.90;99179.97;5032066;28;19917;-83
2022/05/22 07:53:55;;;;;;;;;;;;;;;25.77;33.37;99176.81;5032041;28;19935;-81
2022/05/22 07:56:22;;;;;;;;;;;;;;;26.02;32.67;99174.72;5031969;28;20290;-81
2022/05/22 07:58:48;;;;;;;;;;;;;;;26.13;33.31;99176.47;5032355;28;19913;-82
2022/05/22 08:01:13;;;;;;;;;;;;;;;26.16;33.12;99170.78;5011460;28;19917;-83
2022/05/22 08:03:39;;;;;;;;;;;;;;;26.30;33.32;99159.59;5030725;28;19921;-85
2022/05/22 08:06:04;;;;;;;;;;;;;;;26.32;33.31;99160.34;5031672;28;19935;-81
2022/05/22 08:08:30;;;;;;;;;;;;;;;26.40;33.07;99159.63;5031386;28;20373;-83
2022/05/22 08:10:57;;;;;;;;;;;;;;;26.69;34.26;99156.19;5030506;28;20331;-82
2022/05/22 08:13:22;;;;;;;;;;;;;;;26.90;33.61;99165.03;5030377;28;19917;-81
2022/05/22 08:15:47;;;;;;;;;;;;;;;26.98;33.88;99158.94;5031623;28;19924;-82
2022/05/22 08:18:13;;;;;;;;;;;;;;;27.13;31.90;99157.50;5030728;28;19920;-82
2022/05/22 08:20:40;;;;;;;;;;;;;;;27.14;33.27;99163.78;5030716;28;19917;-83
2022/05/22 08:23:07;;;;;;;;;;;;;;;26.98;32.42;99154.38;5031053;28;19983;-83
2022/05/22 08:25:32;;;;;;;;;;;;;;;26.69;31.21;99140.78;5031322;28;19913;-81
2022/05/22 08:27:58;;;;;;;;;;;;;;;26.77;33.45;99154.50;5030555;28;19913;-82
2022/05/22 08:30:24;;;;;;;;;;;;;;;26.89;31.93;99157.06;5028385;28;19925;-81
2022/05/22 08:32:50;;;;;;;;;;;;;;;27.00;32.78;99151.50;5028061;28;19917;-80
2022/05/22 08:35:17;;;;;;;;;;;;;;;26.88;31.88;99139.13;5011749;28;19920;-81
2022/05/22 08:37:43;;;;;;;;;;;;;;;26.90;33.53;99154.22;5030644;28;19921;-82
2022/05/22 08:40:10;;;;;;;;;;;;;;;26.94;32.60;99147.53;5031132;28;19917;-85
2022/05/22 08:42:38;;;;;;;;;;;;;;;27.11;34.66;99153.22;5029529;28;19921;-83
2022/05/22 08:45:05;;;;;;;;;;;;;;;27.51;32.06;99150.41;5030721;28;19970;-86
2022/05/22 08:47:37;;;;;;;;;;;;;;;27.57;30.75;99148.94;5011621;28;20367;-85
2022/05/22 08:50:06;;;;;;;;;;;;;;;27.54;29.69;99146.53;5030094;28;19917;-83
2022/05/22 08:52:38;;;;;;;;;;;;;;;27.35;29.84;99155.53;5036355;28;19958;-86
2022/05/22 08:55:07;;;;;;;;;;;;;;;27.18;29.00;99150.81;5035961;28;19913;-84
2022/05/22 09:00:26;;;;;;;;;;;;;;;27.53;30.02;99136.72;5029734;28;20429;-83
2022/05/22 09:03:08;;;;;;;;;;;;;;;27.84;30.92;99125.66;5031630;28;19921;-83
2022/05/22 09:05:34;;;;;;;;;;;;;;;28.20;30.16;99125.84;5030353;28;20741;-82
2022/05/22 09:08:06;;;;;;;;;;;;;;;28.37;29.45;99116.88;5030393;28;20068;-85
2022/05/22 09:10:37;;;;;;;;;;;;;;;28.39;27.95;99127.56;5030507;28;19967;-85
2022/05/22 09:13:18;;;;;;;;;;;;;;;28.35;28.69;99123.47;5029316;28;19964;-84
2022/05/22 09:16:06;;;;;;;;;;;;;;;28.50;29.39;99113.81;5028415;28;19929;-85
2022/05/22 09:18:34;;;;;;;;;;;;;;;28.58;28.40;99115.78;4991931;28;19967;-85
2022/05/22 09:21:02;;;;;;;;;;;;;;;29.11;27.22;99123.09;5030516;28;19917;-84
2022/05/22 09:23:46;;;;;;;;;;;;;;;28.81;26.64;99115.34;5030701;28;19939;-82
2022/05/22 09:26:20;;;;;;;;;;;;;;;28.61;25.64;99112.78;5030247;28;19917;-83
2022/05/22 09:29:03;;;;;;;;;;;;;;;28.80;26.26;99114.50;5029997;28;19917;-82
2022/05/22 09:31:35;;;;;;;;;;;;;;;28.89;25.95;99110.03;5033166;28;20402;-83
2022/05/22 09:34:00;;;;;;;;;;;;;;;28.66;25.74;99115.03;5032755;28;19924;-83
2022/05/22 09:36:43;;;;;;;;;;;;;;;28.60;24.66;99112.94;5032392;28;20430;-85
2022/05/22 09:39:14;;;;;;;;;;;;;;;28.43;26.36;99115.44;5034022;28;19917;-83
2022/05/22 09:42:00;;;;;;;;;;;;;;;28.14;25.72;99116.44;5033876;28;19921;-82
2022/05/22 09:44:28;;;;;;;;;;;;;;;27.94;26.10;99101.22;5033358;28;19923;-81
2022/05/22 09:46:54;;;;;;;;;;;;;;;28.04;27.28;99094.78;5034209;28;20000;-81
2022/05/22 09:49:26;;;;;;;;;;;;;;;28.20;26.43;99087.88;5015721;28;20012;-82
2022/05/22 09:51:52;;;;;;;;;;;;;;;28.36;29.23;99088.06;5015973;28;20755;-82
2022/05/22 09:54:40;;;;;;;;;;;;;;;28.46;28.48;99076.31;5034561;28;19955;-83
2022/05/22 09:57:17;;;;;;;;;;;;;;;28.64;30.02;99079.06;5033964;28;19921;-81
2022/05/22 09:59:52;;;;;;;;;;;;;;;28.84;27.18;99079.75;5034430;28;19917;-82
2022/05/22 10:02:31;;;;;;;;;;;;;;;28.84;28.75;99077.03;5033719;28;20395;-85
2022/05/22 10:05:06;;;;;;;;;;;;;;;28.74;26.61;99075.25;5033396;28;19921;-83
2022/05/22 10:07:34;;;;;;;;;;;;;;;28.56;26.46;99068.94;5034563;28;20291;-83
2022/05/22 10:10:15;;;;;;;;;;;;;;;28.61;28.86;99069.38;5034184;28;19920;-82
2022/05/22 10:12:57;;;;;;;;;;;;;;;28.88;28.68;99076.59;5034094;28;19924;-81
2022/05/22 10:15:34;;;;;;;;;;;;;;;29.08;25.57;99071.84;5033839;28;20421;-82
2022/05/22 10:18:08;;;;;;;;;;;;;;;28.88;25.64;99063.00;5033709;28;19920;-82
2022/05/22 10:20:45;;;;;;;;;;;;;;;29.28;27.21;99067.09;5031187;28;19917;-82
2022/05/22 10:23:11;;;;;;;;;;;;;;;29.57;27.58;99070.53;5034073;28;19912;-82
2022/05/22 10:25:39;;;;;;;;;;;;;;;29.74;26.69;99074.19;5034146;28;20413;-82
2022/05/22 10:28:07;;;;;;;;;;;;;;;29.45;26.78;99076.22;5033173;28;19975;-84
2022/05/22 10:30:35;;;;;;;;;;;;;;;29.46;26.37;99075.22;5032920;28;19983;-84
2022/05/22 10:33:05;;;;;;;;;;;;;;;29.28;28.47;99066.25;5031778;28;19917;-82
2022/05/22 10:35:39;;;;;;;;;;;;;;;29.06;26.80;99065.72;5032904;28;19913;-83
2022/05/22 10:38:04;;;;;;;;;;;;;;;29.01;28.02;99067.19;5031685;28;20425;-82
2022/05/22 10:42:44;;;;;;;;;;;;;;;28.93;27.59;99063.41;5032372;28;20023;-84
2022/05/22 10:43:15;;;;;;;;;;;;;;;29.02;27.35;99072.47;5031083;28;19913;-84
2022/05/22 10:45:40;;;;;;;;;;;;;;;28.84;27.96;99072.50;5032633;28;20394;-87
2022/05/22 10:48:06;;;;;;;;;;;;;;;29.06;28.00;99063.00;5017010;28;20016;-87
2022/05/22 10:50:31;;;;;;;;;;;;;;;29.19;28.68;99065.31;5032029;28;20321;-88
2022/05/22 10:52:57;;;;;;;;;;;;;;;29.28;28.59;99050.81;5031879;28;19919;-86
2022/05/22 10:55:43;;;;;;;;;;;;;;;29.56;29.43;99049.81;5018694;28;19917;-86
2022/05/22 10:58:20;;;;;;;;;;;;;;;29.60;26.76;99053.91;5032885;28;19913;-83
2022/05/22 11:00:56;;;;;;;;;;;;;;;29.52;30.19;99045.69;5033774;28;20367;-84
2022/05/22 11:03:26;;;;;;;;;;;;;;;29.80;27.08;99046.41;5032430;28;19961;-85
2022/05/22 11:05:52;;;;;;;;;;;;;;;29.61;27.50;99040.16;5032522;28;20445;-85
2022/05/22 11:08:29;;;;;;;;;;;;;;;29.43;25.88;99033.94;5033219;28;19913;-84
2022/05/22 11:10:55;;;;;;;;;;;;;;;29.90;28.65;99027.25;5032658;28;20007;-86
2022/05/22 11:13:22;;;;;;;;;;;;;;;30.12;25.37;99040.25;5032495;28;19916;-87
2022/05/22 11:15:47;;;;;;;;;;;;;;;29.70;23.20;99035.59;5032836;28;19924;-83
2022/05/22 11:18:26;;;;;;;;;;;;;;;30.02;27.92;99028.66;5031975;28;19917;-84
2022/05/22 11:20:58;;;;;;;;;;;;;;;29.99;28.40;99027.09;5032668;28;19921;-84
2022/05/22 11:23:26;;;;;;;;;;;;;;;30.14;27.84;99026.50;5031627;28;19971;-83
2022/05/22 11:25:59;;;;;;;;;;;;;;;29.86;27.81;99017.69;5013213;28;19917;-83
2022/05/22 11:28:37;;;;;;;;;;;;;;;29.73;29.19;99013.53;5030959;28;19913;-84
2022/05/22 11:31:21;;;;;;;;;;;;;;;29.81;28.24;99013.63;5029284;28;19917;-84
2022/05/22 11:34:04;;;;;;;;;;;;;;;30.07;29.08;99007.25;5031847;28;19931;-83
2022/05/22 11:36:33;;;;;;;;;;;;;;;30.14;28.12;99005.59;5014521;28;20296;-83
2022/05/22 11:39:16;;;;;;;;;;;;;;;30.02;28.38;98995.19;5032141;28;19948;-83
2022/05/22 11:41:49;;;;;;;;;;;;;;;29.79;27.41;98993.88;5032056;28;19978;-82
2022/05/22 11:44:26;;;;;;;;;;;;;;;30.22;28.49;98995.75;5032387;28;19951;-82
2022/05/22 11:46:54;;;;;;;;;;;;;;;30.22;26.62;98987.59;5032499;28;19909;-82
2022/05/22 11:49:29;;;;;;;;;;;;;;;30.03;28.79;98984.16;5031995;28;19917;-83
2022/05/22 11:52:53;;;;;;;;;;;;;;;29.78;28.88;98975.88;5032329;28;19919;-83
2022/05/22 11:55:07;;;;;;;;;;;;;;;30.25;27.90;98982.66;5028513;28;19917;-83
2022/05/22 11:58:02;;;;;;;;;;;;;;;30.75;26.32;98978.13;5031590;28;19920;-83
2022/05/22 12:00:40;;;;;;;;;;;;;;;31.04;25.89;98987.69;4977373;28;19918;-81
2022/05/22 12:03:06;;;;;;;;;;;;;;;30.36;24.92;98984.22;5030480;28;19928;-82
2022/05/22 12:05:51;;;;;;;;;;;;;;;30.29;26.43;98965.00;5031255;28;20031;-84
2022/05/22 12:08:22;;;;;;;;;;;;;;;30.23;25.92;98967.53;5030106;28;20024;-83
2022/05/22 12:10:51;;;;;;;;;;;;;;;30.21;26.90;98967.69;5030722;28;19924;-82
2022/05/22 12:13:42;;;;;;;;;;;;;;;29.74;27.30;98969.06;5031015;28;19964;-82
2022/05/22 12:16:07;;;;;;;;;;;;;;;29.55;28.61;98972.91;5026987;28;20366;-83
2022/05/22 12:18:38;;;;;;;;;;;;;;;29.53;28.26;98965.91;5030000;28;19917;-85
2022/05/22 12:21:18;;;;;;;;;;;;;;;29.28;28.41;98963.06;5031097;28;19917;-82
2022/05/22 12:24:02;;;;;;;;;;;;;;;29.30;27.62;98966.47;5031306;28;20414;-82
2022/05/22 12:26:30;;;;;;;;;;;;;;;29.58;26.97;98955.38;5030981;28;19917;-83
2022/05/22 12:29:09;;;;;;;;;;;;;;;29.42;27.34;98953.47;5030747;28;19925;-82
2022/05/22 12:31:43;;;;;;;;;;;;;;;29.28;27.11;98952.19;5029669;28;20303;-82
2022/05/22 12:34:12;;;;;;;;;;;;;;;29.45;27.15;98953.97;5030182;28;20008;-83
2022/05/22 12:36:40;;;;;;;;;;;;;;;29.71;26.75;98944.09;5031415;28;19917;-84
2022/05/22 12:39:07;;;;;;;;;;;;;;;30.03;25.36;98946.09;5031626;28;19916;-83
2022/05/22 12:41:37;;;;;;;;;;;;;;;29.98;26.22;98938.44;5030016;28;20291;-83
2022/05/22 12:44:04;;;;;;;;;;;;;;;30.16;25.01;98935.56;5030430;28;19968;-84
2022/05/22 12:46:30;;;;;;;;;;;;;;;30.66;26.15;98944.66;5030162;28;19920;-82
2022/05/22 12:49:23;;;;;;;;;;;;;;;30.96;26.53;98944.94;5030226;28;19924;-84
2022/05/22 12:52:06;;;;;;;;;;;;;;;30.28;26.58;98930.66;5030901;28;19913;-82
2022/05/22 12:54:33;;;;;;;;;;;;;;;30.06;27.98;98934.88;5029549;28;19924;-84
2022/05/22 12:57:13;;;;;;;;;;;;;;;30.17;28.46;98931.00;5030135;28;19999;-83
2022/05/22 12:59:49;;;;;;;;;;;;;;;29.75;28.17;98929.13;5029269;28;19917;-82
2022/05/22 13:02:25;;;;;;;;;;;;;;;29.85;28.66;98929.06;5028279;28;20016;-81
2022/05/22 13:04:52;;;;;;;;;;;;;;;29.77;29.35;98930.69;4966861;28;19969;-82